createdAt,value
2023-04-21T00:00:01.134Z,10.88
2023-04-21T00:05:02.984Z,10.76
2023-04-21T00:10:07.354Z,10.72
2023-04-21T00:15:09.845Z,10.75
2023-04-21T00:20:11.935Z,10.62
2023-04-21T00:25:14.972Z,10.59
2023-04-21T00:30:16.768Z,10.55
2023-04-21T00:35:18.233Z,10.50
2023-04-21T00:40:20.459Z,10.55
2023-04-21T00:45:21.866Z,10.46
2023-04-21T00:50:23.554Z,10.39
2023-04-21T00:55:25.534Z,10.36
2023-04-21T01:00:27.049Z,10.38
2023-04-21T01:05:28.517Z,10.34
2023-04-21T01:10:30.044Z,10.21
2023-04-21T01:15:31.531Z,10.18
2023-04-21T01:20:33.140Z,10.20
2023-04-21T01:25:34.574Z,10.13
2023-04-21T01:30:36.029Z,10.16
2023-04-21T01:35:37.503Z,10.10
2023-04-21T01:40:41.835Z,10.06
2023-04-21T01:45:43.316Z,9.99
2023-04-21T01:50:44.805Z,9.97
2023-04-21T01:55:46.320Z,9.95
2023-04-21T02:00:47.805Z,9.84
2023-04-21T02:05:50.936Z,9.79
2023-04-21T02:10:52.370Z,9.75
2023-04-21T02:16:02.720Z,9.64
2023-04-21T02:21:13.993Z,9.51
2023-04-21T02:26:15.720Z,9.47
2023-04-21T02:31:18.771Z,9.40
2023-04-21T02:36:20.780Z,9.33
2023-04-21T02:41:23.281Z,9.33
2023-04-21T02:46:24.754Z,9.32
2023-04-21T02:51:26.856Z,9.22
2023-04-21T02:56:28.326Z,9.10
2023-04-21T03:01:29.754Z,9.06
2023-04-21T03:06:33.153Z,8.93
2023-04-21T03:11:34.577Z,8.89
2023-04-21T03:16:36.021Z,8.83
2023-04-21T03:21:39.009Z,8.68
2023-04-21T03:26:41.065Z,8.60
2023-04-21T03:31:42.513Z,8.56
2023-04-21T03:36:44.040Z,8.60
2023-04-21T03:41:45.621Z,8.58
2023-04-21T03:46:47.050Z,8.55
2023-04-21T03:51:48.510Z,8.48
2023-04-21T03:56:49.918Z,8.48
2023-04-21T04:01:51.348Z,8.46
2023-04-21T04:06:52.810Z,8.37
2023-04-21T04:11:54.234Z,8.42
2023-04-21T04:16:55.660Z,8.43
2023-04-21T04:21:59.738Z,8.57
2023-04-21T04:27:02.981Z,8.61
2023-04-21T04:32:06.569Z,8.69
2023-04-21T04:37:11.133Z,8.76
2023-04-21T04:42:12.669Z,8.89
2023-04-21T04:47:14.109Z,9.04
2023-04-21T04:52:15.647Z,9.21
2023-04-21T04:57:17.070Z,9.36
2023-04-21T05:02:18.693Z,9.60
2023-04-21T05:07:20.809Z,9.81
2023-04-21T05:12:22.322Z,10.05
2023-04-21T05:17:23.807Z,10.38
2023-04-21T05:22:25.919Z,10.70
2023-04-21T05:27:27.518Z,11.00
2023-04-21T05:32:29.503Z,11.29
2023-04-21T05:37:31.122Z,11.35
2023-04-21T05:42:32.569Z,11.41
2023-04-21T05:47:34.010Z,11.42
2023-04-21T05:52:37.198Z,11.59
2023-04-21T05:57:38.698Z,11.91
2023-04-21T06:02:40.366Z,12.00
2023-04-21T06:07:42.004Z,12.10
2023-04-21T06:12:43.413Z,12.09
2023-04-21T06:17:44.902Z,12.25
2023-04-21T06:22:46.393Z,12.48
2023-04-21T06:27:48.084Z,12.51
2023-04-21T06:32:49.644Z,12.77
2023-04-21T06:37:51.118Z,12.95
2023-04-21T06:42:52.539Z,13.00
2023-04-21T06:47:53.962Z,13.16
2023-04-21T06:52:55.528Z,13.41
2023-04-21T06:57:57.055Z,13.34
2023-04-21T07:02:58.606Z,13.45
2023-04-21T07:08:00.382Z,13.50
2023-04-21T07:13:01.817Z,13.67
2023-04-21T07:18:03.402Z,13.89
2023-04-21T07:23:04.989Z,14.07
2023-04-21T07:28:06.641Z,14.10
2023-04-21T07:33:09.055Z,14.36
2023-04-21T07:38:10.653Z,14.52
2023-04-21T07:43:12.087Z,14.67
2023-04-21T07:48:13.628Z,14.86
2023-04-21T07:53:15.107Z,14.87
2023-04-21T07:58:16.957Z,15.00
2023-04-21T08:03:18.696Z,15.29
2023-04-21T08:08:21.971Z,15.53
2023-04-21T08:13:25.330Z,15.49
2023-04-21T08:18:26.820Z,15.87
2023-04-21T08:28:32.159Z,16.33
2023-04-21T08:33:33.579Z,16.46
2023-04-21T08:38:35.625Z,16.82
2023-04-21T08:43:37.140Z,16.81
2023-04-21T08:48:39.078Z,16.87
2023-04-21T08:53:41.423Z,17.05
2023-04-21T08:58:42.870Z,17.33
2023-04-21T09:03:44.502Z,17.62
2023-04-21T09:08:56.372Z,17.61
2023-04-21T09:13:58.454Z,17.78
2023-04-21T09:19:00.508Z,17.82
2023-04-21T09:24:05.903Z,18.03
2023-04-21T09:29:08.898Z,18.22
2023-04-21T09:34:26.940Z,18.14
2023-04-21T09:39:43.214Z,18.44
2023-04-21T09:44:59.601Z,18.78
2023-04-21T09:50:13.462Z,18.73
2023-04-21T09:55:16.043Z,18.59
2023-04-21T10:00:22.116Z,18.72
2023-04-21T10:05:23.701Z,18.96
2023-04-21T10:10:33.338Z,19.15
2023-04-21T10:15:38.761Z,19.27
2023-04-21T10:20:58.380Z,19.44
2023-04-21T10:26:15.212Z,19.54
2023-04-21T10:31:21.601Z,19.64
2023-04-21T10:36:25.255Z,19.67
2023-04-21T10:41:34.026Z,19.96
2023-04-21T10:46:36.525Z,20.12
2023-04-21T10:52:00.075Z,20.08
2023-04-21T10:57:01.642Z,19.72
2023-04-21T11:02:04.999Z,19.89
2023-04-21T11:07:17.512Z,20.28
2023-04-21T11:12:18.972Z,20.42
2023-04-21T11:17:21.878Z,20.51
2023-04-21T11:22:24.800Z,20.34
2023-04-21T11:27:28.028Z,20.07
2023-04-21T11:32:29.623Z,20.27
2023-04-21T11:37:31.880Z,20.41
2023-04-21T11:42:33.472Z,20.50
2023-04-21T11:47:34.975Z,20.35
2023-04-21T11:52:37.724Z,20.25
2023-04-21T11:57:40.577Z,20.49
2023-04-21T12:02:43.393Z,20.26
2023-04-21T12:07:47.959Z,19.93
2023-04-21T12:12:49.445Z,19.35
2023-04-21T12:17:53.312Z,19.49
2023-04-21T12:22:56.412Z,19.80
2023-04-21T12:27:59.240Z,19.41
2023-04-21T12:33:01.263Z,19.58
2023-04-21T12:38:02.909Z,19.80
2023-04-21T12:43:04.430Z,19.97
2023-04-21T12:48:06.675Z,19.60
2023-04-21T12:53:08.177Z,19.45
2023-04-21T12:58:09.764Z,19.90
2023-04-21T13:03:11.282Z,20.07
2023-04-21T13:08:12.953Z,20.31
2023-04-21T13:13:14.457Z,20.12
2023-04-21T13:18:15.966Z,19.97
2023-04-21T13:23:17.435Z,19.94
2023-04-21T13:28:19.621Z,19.84
2023-04-21T13:33:21.507Z,19.68
2023-04-21T13:38:22.979Z,19.82
2023-04-21T13:43:24.755Z,20.01
2023-04-21T13:48:26.700Z,20.28
2023-04-21T13:53:28.113Z,20.25
2023-04-21T13:58:30.847Z,20.22
2023-04-21T14:03:32.455Z,20.14
2023-04-21T14:08:34.077Z,20.02
2023-04-21T14:13:44.670Z,20.04
2023-04-21T14:18:49.444Z,19.91
2023-04-21T14:23:51.039Z,19.96
2023-04-21T14:28:52.474Z,19.98
2023-04-21T14:33:53.948Z,19.61
2023-04-21T14:38:55.686Z,19.47
2023-04-21T14:43:57.847Z,19.65
2023-04-21T14:48:59.411Z,19.90
2023-04-21T14:54:00.912Z,20.16
2023-04-21T14:59:02.499Z,19.86
2023-04-21T15:04:04.267Z,19.57
2023-04-21T15:09:06.009Z,19.22
2023-04-21T15:14:07.512Z,19.13
2023-04-21T15:19:09.166Z,19.23
2023-04-21T15:24:10.833Z,19.31
2023-04-21T15:29:12.257Z,19.36
2023-04-21T15:34:13.689Z,19.52
2023-04-21T15:39:15.262Z,19.43
2023-04-21T15:44:16.748Z,19.34
2023-04-21T15:49:18.198Z,19.34
2023-04-21T15:54:19.730Z,19.25
2023-04-21T15:59:22.426Z,19.26
2023-04-21T16:04:25.650Z,19.28
2023-04-21T16:09:27.283Z,19.16
2023-04-21T16:14:36.217Z,18.96
2023-04-21T16:19:45.580Z,18.77
2023-04-21T16:24:47.237Z,18.54
2023-04-21T16:29:50.217Z,18.44
2023-04-21T16:34:51.748Z,18.26
2023-04-21T16:39:53.255Z,18.25
2023-04-21T16:44:58.934Z,18.18
2023-04-21T16:50:00.479Z,18.13
2023-04-21T16:55:02.005Z,17.98
2023-04-21T17:00:07.029Z,17.91
2023-04-21T17:05:09.048Z,17.87
2023-04-21T17:10:10.784Z,17.87
2023-04-21T17:15:12.214Z,17.76
2023-04-21T17:20:14.709Z,17.60
2023-04-21T17:25:16.168Z,17.49
2023-04-21T17:30:18.933Z,17.43
2023-04-21T17:35:20.393Z,17.30
2023-04-21T17:40:22.239Z,17.16
2023-04-21T17:45:23.701Z,17.02
2023-04-21T17:50:27.402Z,16.89
2023-04-21T17:55:28.965Z,16.78
2023-04-21T18:00:34.380Z,16.67
2023-04-21T18:05:35.849Z,16.58
2023-04-21T18:10:37.695Z,16.47
2023-04-21T18:15:39.332Z,16.37
2023-04-21T18:20:40.810Z,16.27
2023-04-21T18:25:43.172Z,16.18
2023-04-21T18:30:44.909Z,16.08
2023-04-21T18:35:46.719Z,15.97
2023-04-21T18:40:48.201Z,15.85
2023-04-21T18:45:49.623Z,15.76
2023-04-21T18:50:51.138Z,15.60
2023-04-21T18:55:53.017Z,15.54
2023-04-21T19:00:54.759Z,15.48
2023-04-21T19:05:56.260Z,15.37
2023-04-21T19:10:57.827Z,15.34
2023-04-21T19:15:59.365Z,15.28
2023-04-21T19:21:00.869Z,15.15
2023-04-21T19:26:05.100Z,15.06
2023-04-21T19:31:06.983Z,15.00
2023-04-21T19:36:09.398Z,14.83
2023-04-21T19:41:10.893Z,14.72
2023-04-21T19:46:12.390Z,14.63
2023-04-21T19:51:13.853Z,14.58
2023-04-21T19:56:15.652Z,14.52
2023-04-21T20:01:17.112Z,14.43
2023-04-21T20:06:19.567Z,14.44
2023-04-21T20:11:21.404Z,14.35
2023-04-21T20:16:23.852Z,14.24
2023-04-21T20:21:25.615Z,14.15
2023-04-21T20:26:27.152Z,14.05
2023-04-21T20:31:28.977Z,13.99
2023-04-21T20:36:30.526Z,13.92
2023-04-21T20:41:32.742Z,13.90
2023-04-21T20:46:34.224Z,13.80
2023-04-21T20:51:41.899Z,13.61
2023-04-21T20:56:43.341Z,13.54
2023-04-21T21:01:46.019Z,13.46
2023-04-21T21:06:47.504Z,13.42
2023-04-21T21:11:48.923Z,13.40
2023-04-21T21:16:54.286Z,13.32
2023-04-21T21:21:55.978Z,13.27
2023-04-21T21:26:58.118Z,13.15
2023-04-21T21:31:59.578Z,13.07
2023-04-21T21:37:01.047Z,13.00
2023-04-21T21:42:02.514Z,13.00
2023-04-21T21:47:04.256Z,12.95
2023-04-21T21:52:05.843Z,12.86
2023-04-21T21:57:07.279Z,12.78
2023-04-21T22:02:08.765Z,12.76
2023-04-21T22:07:10.515Z,12.70
2023-04-21T22:12:12.094Z,12.64
2023-04-21T22:17:14.421Z,12.59
2023-04-21T22:22:16.009Z,12.56
2023-04-21T22:27:17.577Z,12.53
2023-04-21T22:32:19.052Z,12.49
2023-04-21T22:37:20.468Z,12.43
2023-04-21T22:42:21.891Z,12.39
2023-04-21T22:47:23.732Z,12.32
2023-04-21T22:52:28.384Z,12.25
2023-04-21T22:57:29.829Z,12.19
2023-04-21T23:02:31.499Z,12.15
2023-04-21T23:07:33.323Z,12.08
2023-04-21T23:12:34.918Z,12.00
2023-04-21T23:17:36.408Z,11.97
2023-04-21T23:22:38.056Z,11.92
2023-04-21T23:27:39.479Z,11.83
2023-04-21T23:32:41.446Z,11.77
2023-04-21T23:37:43.098Z,11.73
2023-04-21T23:42:47.489Z,11.68
2023-04-21T23:47:49.297Z,11.61
2023-04-21T23:52:50.778Z,11.55
2023-04-21T23:57:52.195Z,11.50
